aviador You're here:

SCVM Decoded Metar

in
Report Time2017-09-23 18:00:00
UTC Time2017-09-23 18:22:37
Flight Rules mvfr MVFR
Wind320° at 10 kt
W.Decomp.*RWY 23: 10.0 kt RCW
W.Rank320° ranks 5
Current wind is above 320° avg. (7.1)
Visibility5000 m
Phenomena:Mist
Clouds:Broken 015 Hf
Expected CloudBase > 1,200 ft AGL from Temp-Dew spread
Ceiling1,500 ft
Temp14°C
Dew Point11°C (82% RH)
AAT10.7°C
QNH1015 hPa
Raw Report
METAR SCVM 231800Z 32010KT 5000 BR BKN015 14/11 Q1015=

Extra information for SCVM:More info

Social comments